createdAt,value
2019-02-20T00:00:40.656Z,100.00
2019-02-20T00:03:44.047Z,100.00
2019-02-20T00:06:46.978Z,100.00
2019-02-20T00:09:50.233Z,100.00
2019-02-20T00:12:53.196Z,100.00
2019-02-20T00:15:56.152Z,100.00
2019-02-20T00:18:59.553Z,100.00
2019-02-20T00:22:02.760Z,100.00
2019-02-20T00:25:06.247Z,100.00
2019-02-20T00:28:09.560Z,100.00
2019-02-20T00:31:12.496Z,100.00
2019-02-20T00:34:15.438Z,100.00
2019-02-20T00:37:18.375Z,100.00
2019-02-20T00:40:21.324Z,100.00
2019-02-20T00:43:25.788Z,100.00
2019-02-20T00:46:37.165Z,100.00
2019-02-20T00:49:43.455Z,100.00
2019-02-20T00:52:54.854Z,100.00
2019-02-20T00:55:57.796Z,100.00
2019-02-20T00:59:01.952Z,100.00
2019-02-20T01:02:05.268Z,100.00
2019-02-20T01:05:08.249Z,100.00
2019-02-20T01:08:11.286Z,100.00
2019-02-20T01:11:14.510Z,100.00
2019-02-20T01:14:18.136Z,100.00
2019-02-20T01:17:22.204Z,100.00
2019-02-20T01:20:25.159Z,100.00
2019-02-20T01:23:28.080Z,100.00
2019-02-20T01:26:31.046Z,100.00
2019-02-20T01:29:34.359Z,100.00
2019-02-20T01:32:37.307Z,100.00
2019-02-20T01:35:40.253Z,100.00
2019-02-20T01:38:43.186Z,100.00
2019-02-20T01:41:46.476Z,100.00
2019-02-20T01:44:49.414Z,100.00
2019-02-20T01:47:52.763Z,100.00
2019-02-20T01:50:56.575Z,100.00
2019-02-20T01:54:00.014Z,100.00
2019-02-20T01:57:03.070Z,100.00
2019-02-20T02:00:07.537Z,100.00
2019-02-20T02:03:11.082Z,100.00
2019-02-20T02:06:14.191Z,100.00
2019-02-20T02:09:17.126Z,100.00
2019-02-20T02:12:20.841Z,100.00
2019-02-20T02:15:24.172Z,100.00
2019-02-20T02:18:27.138Z,100.00
2019-02-20T02:21:30.089Z,100.00
2019-02-20T02:24:33.333Z,100.00
2019-02-20T02:27:36.695Z,100.00
2019-02-20T02:30:39.997Z,100.00
2019-02-20T02:33:42.947Z,100.00
2019-02-20T02:36:45.906Z,100.00
2019-02-20T02:39:48.862Z,100.00
2019-02-20T02:42:52.149Z,100.00
2019-02-20T02:45:55.880Z,100.00
2019-02-20T02:48:59.473Z,100.00
2019-02-20T02:52:02.438Z,100.00
2019-02-20T02:55:05.613Z,100.00
2019-02-20T02:58:08.560Z,100.00
2019-02-20T03:01:11.760Z,100.00
2019-02-20T03:04:14.827Z,100.00
2019-02-20T03:07:18.039Z,100.00
2019-02-20T03:10:21.008Z,100.00
2019-02-20T03:13:23.923Z,100.00
2019-02-20T03:16:28.318Z,100.00
2019-02-20T03:19:31.694Z,100.00
2019-02-20T03:22:34.657Z,100.00
2019-02-20T03:25:37.602Z,100.00
2019-02-20T03:28:40.869Z,100.00
2019-02-20T03:31:43.828Z,100.00
2019-02-20T03:34:47.159Z,100.00
2019-02-20T03:37:50.758Z,100.00
2019-02-20T03:40:53.707Z,100.00
2019-02-20T03:43:56.639Z,100.00
2019-02-20T03:46:59.607Z,100.00
2019-02-20T03:50:02.658Z,100.00
2019-02-20T03:53:05.983Z,100.00
2019-02-20T03:56:10.102Z,100.00
2019-02-20T03:59:13.683Z,100.00
2019-02-20T04:02:17.076Z,100.00
2019-02-20T04:05:20.020Z,100.00
2019-02-20T04:08:23.653Z,100.00
2019-02-20T04:11:26.957Z,100.00
2019-02-20T04:14:30.119Z,100.00
2019-02-20T04:17:33.087Z,100.00
2019-02-20T04:20:36.320Z,100.00
2019-02-20T04:23:39.645Z,100.00
2019-02-20T04:26:42.596Z,100.00
2019-02-20T04:29:45.532Z,100.00
2019-02-20T04:32:48.479Z,100.00
2019-02-20T04:35:51.440Z,100.00
2019-02-20T04:38:54.372Z,100.00
2019-02-20T04:41:57.323Z,100.00
2019-02-20T04:45:00.601Z,100.00
2019-02-20T04:48:03.562Z,100.00
2019-02-20T04:51:06.859Z,100.00
2019-02-20T04:54:13.291Z,100.00
2019-02-20T04:57:14.672Z,100.00
2019-02-20T05:00:17.921Z,100.00
2019-02-20T05:03:23.118Z,100.00
2019-02-20T05:06:26.598Z,100.00
2019-02-20T05:09:30.179Z,100.00
2019-02-20T05:12:33.765Z,100.00
2019-02-20T05:15:37.006Z,100.00
2019-02-20T05:18:40.653Z,100.00
2019-02-20T05:21:43.584Z,100.00
2019-02-20T05:24:46.532Z,100.00
2019-02-20T05:27:50.159Z,100.00
2019-02-20T05:30:53.132Z,100.00
2019-02-20T05:33:56.093Z,100.00
2019-02-20T05:36:59.339Z,100.00
2019-02-20T05:40:02.528Z,100.00
2019-02-20T05:43:07.293Z,100.00
2019-02-20T05:46:10.305Z,100.00
2019-02-20T05:49:13.264Z,100.00
2019-02-20T05:52:17.761Z,100.00
2019-02-20T05:55:21.034Z,100.00
2019-02-20T05:58:24.036Z,100.00
2019-02-20T06:01:27.416Z,100.00
2019-02-20T06:04:30.782Z,100.00
2019-02-20T06:07:34.127Z,100.00
2019-02-20T06:10:37.133Z,100.00
2019-02-20T06:13:40.413Z,100.00
2019-02-20T06:16:44.122Z,100.00
2019-02-20T06:19:47.487Z,100.00
2019-02-20T06:22:50.408Z,100.00
2019-02-20T06:25:53.731Z,100.00
2019-02-20T06:28:57.031Z,100.00
2019-02-20T06:32:00.378Z,100.00
2019-02-20T06:35:03.326Z,100.00
2019-02-20T06:38:10.662Z,100.00
2019-02-20T06:41:13.124Z,100.00
2019-02-20T06:44:16.473Z,100.00
2019-02-20T06:47:19.440Z,100.00
2019-02-20T06:50:22.374Z,100.00
2019-02-20T06:53:25.339Z,100.00
2019-02-20T06:56:28.280Z,100.00
2019-02-20T06:59:31.611Z,100.00
2019-02-20T07:02:35.801Z,100.00
2019-02-20T07:05:42.094Z,100.00
2019-02-20T07:09:42.179Z,100.00
2019-02-20T07:13:35.901Z,100.00
2019-02-20T07:17:57.052Z,100.00
2019-02-20T07:22:06.413Z,100.00
2019-02-20T07:25:46.928Z,100.00
2019-02-20T07:29:53.036Z,100.00
2019-02-20T07:32:56.670Z,100.00
2019-02-20T07:35:59.961Z,100.00
2019-02-20T07:39:04.628Z,100.00
2019-02-20T07:42:09.487Z,100.00
2019-02-20T07:45:14.237Z,100.00
2019-02-20T07:48:17.873Z,100.00
2019-02-20T07:51:21.218Z,100.00
2019-02-20T07:54:24.176Z,100.00
2019-02-20T07:57:27.517Z,100.00
2019-02-20T08:00:30.489Z,100.00
2019-02-20T08:03:33.575Z,100.00
2019-02-20T08:06:37.510Z,100.00
2019-02-20T08:09:40.901Z,100.00
2019-02-20T08:12:43.936Z,82.74
2019-02-20T08:15:47.670Z,100.00
2019-02-20T08:18:50.631Z,100.00
2019-02-20T08:21:53.581Z,100.00
2019-02-20T08:24:57.643Z,100.00
2019-02-20T08:28:00.597Z,100.00
2019-02-20T08:31:04.549Z,100.00
2019-02-20T08:34:09.697Z,100.00
2019-02-20T08:37:12.628Z,100.00
2019-02-20T08:40:15.751Z,100.00
2019-02-20T08:43:18.717Z,100.00
2019-02-20T08:46:21.672Z,100.00
2019-02-20T08:49:25.007Z,100.00
2019-02-20T08:52:27.991Z,100.00
2019-02-20T08:55:32.309Z,100.00
2019-02-20T08:58:35.732Z,100.00
2019-02-20T09:01:38.750Z,100.00
2019-02-20T09:04:43.476Z,100.00
2019-02-20T09:07:47.167Z,100.00
2019-02-20T09:10:50.446Z,100.00
2019-02-20T09:13:53.843Z,100.00
2019-02-20T09:16:56.804Z,100.00
2019-02-20T09:20:00.150Z,100.00
2019-02-20T09:23:03.340Z,100.00
2019-02-20T09:26:06.303Z,100.00
2019-02-20T09:29:09.708Z,100.00
2019-02-20T09:32:14.854Z,100.00
2019-02-20T09:35:17.810Z,100.00
2019-02-20T09:38:21.071Z,100.00
2019-02-20T09:41:24.017Z,100.00
2019-02-20T09:44:28.338Z,100.00
2019-02-20T09:47:31.666Z,100.00
2019-02-20T09:50:34.667Z,100.00
2019-02-20T09:53:37.625Z,100.00
2019-02-20T09:56:40.925Z,100.00
2019-02-20T09:59:44.201Z,100.00
2019-02-20T10:02:47.502Z,100.00
2019-02-20T10:05:50.828Z,100.00
2019-02-20T10:08:54.117Z,100.00
2019-02-20T10:11:57.077Z,100.00
2019-02-20T10:15:00.349Z,100.00
2019-02-20T10:18:03.300Z,100.00
2019-02-20T10:21:06.228Z,100.00
2019-02-20T10:24:09.595Z,100.00
2019-02-20T10:27:12.568Z,100.00
2019-02-20T10:30:15.988Z,100.00
2019-02-20T10:33:19.726Z,100.00
2019-02-20T10:36:22.662Z,100.00
2019-02-20T10:39:25.624Z,100.00
2019-02-20T10:42:28.559Z,100.00
2019-02-20T10:45:31.895Z,100.00
2019-02-20T10:48:34.863Z,100.00
2019-02-20T10:51:37.798Z,100.00
2019-02-20T10:54:41.064Z,100.00
2019-02-20T10:57:44.002Z,100.00
2019-02-20T11:00:47.151Z,100.00
2019-02-20T11:03:50.127Z,100.00
2019-02-20T11:06:53.194Z,100.00
2019-02-20T11:09:56.198Z,100.00
2019-02-20T11:12:59.127Z,100.00
2019-02-20T11:16:02.262Z,100.00
2019-02-20T11:19:05.211Z,100.00
2019-02-20T11:22:08.543Z,100.00
2019-02-20T11:25:11.883Z,100.00
2019-02-20T11:28:15.035Z,100.00
2019-02-20T11:31:18.021Z,100.00
2019-02-20T11:34:21.090Z,100.00
2019-02-20T11:37:24.471Z,100.00
2019-02-20T11:40:27.451Z,100.00
2019-02-20T11:43:30.709Z,100.00
2019-02-20T11:46:34.025Z,100.00
2019-02-20T11:49:37.304Z,100.00
2019-02-20T11:52:40.263Z,100.00
2019-02-20T11:55:43.526Z,100.00
2019-02-20T11:58:46.787Z,100.00
2019-02-20T12:01:50.723Z,100.00
2019-02-20T12:04:55.159Z,100.00
2019-02-20T12:07:58.099Z,100.00
2019-02-20T12:11:02.135Z,100.00
2019-02-20T12:14:05.184Z,100.00
2019-02-20T12:17:08.492Z,100.00
2019-02-20T12:20:11.918Z,100.00
2019-02-20T12:23:14.861Z,100.00
2019-02-20T12:26:17.795Z,100.00
2019-02-20T12:29:20.792Z,100.00
2019-02-20T12:32:23.720Z,100.00
2019-02-20T12:35:26.700Z,100.00
2019-02-20T12:38:30.262Z,100.00
2019-02-20T12:41:33.951Z,100.00
2019-02-20T12:44:36.901Z,100.00
2019-02-20T12:47:39.831Z,100.00
2019-02-20T12:50:42.795Z,100.00
2019-02-20T12:53:45.723Z,99.51
2019-02-20T12:56:48.671Z,97.96
2019-02-20T12:59:51.755Z,97.81
2019-02-20T13:02:55.195Z,100.00
2019-02-20T13:05:58.774Z,98.72
2019-02-20T13:09:03.848Z,98.40
2019-02-20T13:12:09.524Z,99.22
2019-02-20T13:15:12.489Z,99.56
2019-02-20T13:18:15.846Z,100.00
2019-02-20T13:21:19.167Z,98.94
2019-02-20T13:24:22.600Z,99.46
2019-02-20T13:27:26.269Z,100.00
2019-02-20T13:30:29.591Z,100.00
2019-02-20T13:33:32.627Z,98.29
2019-02-20T13:36:36.535Z,100.00
2019-02-20T13:39:39.458Z,97.39
2019-02-20T13:42:43.757Z,96.35
2019-02-20T13:45:47.099Z,93.92
2019-02-20T13:48:50.071Z,94.34
2019-02-20T13:51:53.028Z,92.21
2019-02-20T13:54:55.971Z,92.69
2019-02-20T13:57:58.928Z,92.14
2019-02-20T14:01:02.197Z,91.10
2019-02-20T14:04:06.532Z,88.70
2019-02-20T14:07:10.106Z,91.08
2019-02-20T14:10:13.183Z,91.07
2019-02-20T14:13:17.909Z,90.57
2019-02-20T14:16:21.672Z,88.84
2019-02-20T14:19:25.436Z,87.86
2019-02-20T14:22:28.407Z,88.05
2019-02-20T14:25:32.148Z,89.84
2019-02-20T14:28:35.495Z,88.50
2019-02-20T14:31:39.272Z,87.51
2019-02-20T14:34:45.531Z,87.38
2019-02-20T14:37:48.618Z,86.15
2019-02-20T14:40:51.628Z,86.37
2019-02-20T14:43:55.048Z,85.93
2019-02-20T14:46:58.228Z,86.02
2019-02-20T14:50:21.534Z,86.71
2019-02-20T14:53:24.502Z,88.17
2019-02-20T14:56:28.160Z,90.12
2019-02-20T14:59:31.541Z,89.52
2019-02-20T15:02:34.504Z,87.94
2019-02-20T15:05:37.777Z,87.39
2019-02-20T15:08:41.142Z,88.02
2019-02-20T15:11:44.107Z,88.99
2019-02-20T15:14:48.277Z,87.85
2019-02-20T15:17:51.233Z,89.02
2019-02-20T15:20:54.662Z,89.87
2019-02-20T15:23:58.035Z,90.31
2019-02-20T15:27:01.444Z,91.73
2019-02-20T15:30:07.047Z,91.38
2019-02-20T15:33:10.117Z,90.48
2019-02-20T15:36:13.401Z,91.46
2019-02-20T15:39:17.276Z,90.33
2019-02-20T15:42:21.141Z,90.15
2019-02-20T15:45:24.214Z,90.72
2019-02-20T15:48:28.710Z,91.67
2019-02-20T15:51:32.063Z,92.37
2019-02-20T15:54:37.300Z,92.40
2019-02-20T15:57:40.916Z,92.40
2019-02-20T16:00:43.888Z,92.79
2019-02-20T16:03:47.192Z,92.27
2019-02-20T16:06:51.113Z,92.25
2019-02-20T16:09:55.348Z,93.42
2019-02-20T16:12:58.829Z,94.04
2019-02-20T16:16:01.770Z,93.72
2019-02-20T16:19:05.135Z,94.27
2019-02-20T16:22:08.100Z,95.95
2019-02-20T16:25:12.385Z,96.78
2019-02-20T16:28:15.337Z,96.23
2019-02-20T16:31:18.631Z,97.63
2019-02-20T16:34:22.023Z,98.38
2019-02-20T16:37:25.993Z,97.58
2019-02-20T16:40:29.335Z,99.59
2019-02-20T16:43:32.327Z,98.61
2019-02-20T16:46:35.490Z,99.10
2019-02-20T16:49:39.182Z,99.21
2019-02-20T16:52:42.154Z,100.00
2019-02-20T16:55:45.112Z,100.00
2019-02-20T16:58:48.677Z,100.00
2019-02-20T17:01:53.000Z,100.00
2019-02-20T17:04:59.216Z,100.00
2019-02-20T17:08:01.495Z,100.00
2019-02-20T17:11:04.550Z,100.00
2019-02-20T17:14:09.128Z,100.00
2019-02-20T17:17:12.631Z,100.00
2019-02-20T17:20:17.609Z,100.00
2019-02-20T17:23:22.025Z,100.00
2019-02-20T17:26:25.567Z,100.00
2019-02-20T17:29:28.516Z,100.00
2019-02-20T17:32:31.846Z,100.00
2019-02-20T17:35:35.106Z,100.00
2019-02-20T17:38:38.454Z,100.00
2019-02-20T17:41:41.762Z,100.00
2019-02-20T17:44:45.093Z,100.00
2019-02-20T17:47:48.798Z,100.00
2019-02-20T17:50:51.865Z,100.00
2019-02-20T17:53:54.792Z,100.00
2019-02-20T17:56:57.772Z,100.00
2019-02-20T18:00:00.745Z,100.00
2019-02-20T18:03:04.612Z,100.00
2019-02-20T18:06:08.128Z,100.00
2019-02-20T18:09:11.269Z,100.00
2019-02-20T18:12:14.607Z,100.00
2019-02-20T18:15:17.915Z,100.00
2019-02-20T18:18:21.559Z,100.00
2019-02-20T18:21:24.524Z,100.00
2019-02-20T18:24:27.495Z,100.00
2019-02-20T18:27:30.562Z,100.00
2019-02-20T18:30:35.097Z,100.00
2019-02-20T18:33:38.134Z,100.00
2019-02-20T18:36:41.587Z,100.00
2019-02-20T18:39:45.414Z,100.00
2019-02-20T18:42:48.423Z,100.00
2019-02-20T18:45:51.713Z,100.00
2019-02-20T18:48:55.440Z,100.00
2019-02-20T18:51:58.898Z,100.00
2019-02-20T18:55:05.979Z,100.00
2019-02-20T18:58:06.835Z,100.00
2019-02-20T19:01:10.186Z,100.00
2019-02-20T19:04:13.237Z,100.00
2019-02-20T19:07:17.589Z,100.00
2019-02-20T19:10:33.358Z,100.00
2019-02-20T19:14:22.117Z,100.00
2019-02-20T19:18:06.690Z,100.00
2019-02-20T19:22:09.892Z,100.00
2019-02-20T19:26:27.730Z,100.00
2019-02-20T19:30:20.596Z,100.00
2019-02-20T19:34:21.226Z,100.00
2019-02-20T19:38:06.493Z,100.00
2019-02-20T19:42:05.047Z,100.00
2019-02-20T19:45:54.148Z,100.00
2019-02-20T19:49:48.157Z,100.00
2019-02-20T19:53:30.657Z,100.00
2019-02-20T19:57:26.855Z,100.00
2019-02-20T20:01:20.240Z,100.00
2019-02-20T20:05:07.641Z,100.00
2019-02-20T20:08:59.877Z,100.00
2019-02-20T20:12:53.599Z,100.00
2019-02-20T20:16:34.217Z,100.00
2019-02-20T20:20:20.203Z,100.00
2019-02-20T20:24:27.515Z,100.00
2019-02-20T20:28:34.868Z,100.00
2019-02-20T20:32:34.108Z,100.00
2019-02-20T20:36:23.479Z,100.00
2019-02-20T20:40:22.018Z,100.00
2019-02-20T20:44:15.215Z,100.00
2019-02-20T20:48:11.967Z,100.00
2019-02-20T20:52:41.137Z,100.00
2019-02-20T20:56:41.399Z,100.00
2019-02-20T21:00:20.869Z,100.00
2019-02-20T21:03:24.782Z,100.00
2019-02-20T21:07:23.217Z,100.00
2019-02-20T21:11:30.421Z,100.00
2019-02-20T21:15:53.252Z,100.00
2019-02-20T21:19:43.867Z,100.00
2019-02-20T21:23:37.227Z,100.00
2019-02-20T21:27:29.013Z,100.00
2019-02-20T21:31:06.989Z,100.00
2019-02-20T21:34:59.695Z,100.00
2019-02-20T21:38:37.123Z,100.00
2019-02-20T21:42:40.151Z,100.00
2019-02-20T21:46:19.719Z,100.00
2019-02-20T21:50:51.096Z,100.00
2019-02-20T21:54:50.798Z,100.00
2019-02-20T21:58:37.505Z,100.00
2019-02-20T22:02:05.792Z,100.00
2019-02-20T22:06:03.107Z,100.00
2019-02-20T22:09:57.606Z,100.00
2019-02-20T22:14:06.366Z,100.00
2019-02-20T22:18:07.098Z,100.00
2019-02-20T22:22:19.289Z,100.00
2019-02-20T22:26:08.789Z,100.00
2019-02-20T22:30:21.055Z,100.00
2019-02-20T22:34:33.518Z,100.00
2019-02-20T22:38:28.365Z,100.00
2019-02-20T22:42:51.028Z,100.00
2019-02-20T22:46:18.544Z,100.00
2019-02-20T22:50:10.241Z,100.00
2019-02-20T22:54:07.547Z,100.00
2019-02-20T22:57:48.645Z,100.00
2019-02-20T23:02:06.870Z,100.00
2019-02-20T23:05:57.484Z,100.00
2019-02-20T23:09:35.803Z,100.00
2019-02-20T23:13:40.870Z,100.00
2019-02-20T23:16:44.539Z,100.00
2019-02-20T23:19:47.489Z,100.00
2019-02-20T23:22:50.448Z,100.00
2019-02-20T23:25:54.510Z,100.00
2019-02-20T23:28:57.960Z,100.00
2019-02-20T23:32:01.027Z,100.00
2019-02-20T23:35:04.518Z,100.00
2019-02-20T23:38:07.476Z,100.00
2019-02-20T23:41:10.769Z,100.00
2019-02-20T23:44:13.711Z,100.00
2019-02-20T23:47:16.665Z,100.00
2019-02-20T23:50:19.616Z,100.00
2019-02-20T23:53:22.964Z,100.00
2019-02-20T23:56:26.227Z,100.00
2019-02-20T23:59:29.264Z,100.00
